createdAt,value
2022-09-28T00:00:39.749Z,0.20
2022-09-28T00:03:08.192Z,0.50
2022-09-28T00:05:36.202Z,0.20
2022-09-28T00:08:04.139Z,0.30
2022-09-28T00:10:31.914Z,0.68
2022-09-28T00:13:01.800Z,0.47
2022-09-28T00:15:29.754Z,0.80
2022-09-28T00:17:57.506Z,0.50
2022-09-28T00:20:25.563Z,0.47
2022-09-28T00:22:53.634Z,0.50
2022-09-28T00:25:22.064Z,0.73
2022-09-28T00:27:51.159Z,0.80
2022-09-28T00:30:20.317Z,0.35
2022-09-28T00:32:48.186Z,0.65
2022-09-28T00:35:16.113Z,0.80
2022-09-28T00:37:43.993Z,0.77
2022-09-28T00:40:12.141Z,0.80
2022-09-28T00:42:42.798Z,0.80
2022-09-28T00:45:11.628Z,0.50
2022-09-28T00:47:46.775Z,0.98
2022-09-28T00:50:21.492Z,0.65
2022-09-28T00:52:53.770Z,0.90
2022-09-28T00:55:27.602Z,0.52
2022-09-28T00:57:59.764Z,0.70
2022-09-28T01:00:27.797Z,0.93
2022-09-28T01:02:57.893Z,0.60
2022-09-28T01:05:26.425Z,0.55
2022-09-28T01:07:56.417Z,0.80
2022-09-28T01:10:24.241Z,0.80
2022-09-28T01:12:52.521Z,0.60
2022-09-28T01:15:21.813Z,0.50
2022-09-28T01:18:06.917Z,0.50
2022-09-28T01:20:55.741Z,0.75
2022-09-28T01:23:51.128Z,0.25
2022-09-28T01:26:48.406Z,0.30
2022-09-28T01:29:25.696Z,0.35
2022-09-28T01:32:00.424Z,0.57
2022-09-28T01:34:38.576Z,0.60
2022-09-28T01:37:10.775Z,0.20
2022-09-28T01:39:43.751Z,0.30
2022-09-28T01:42:16.469Z,0.20
2022-09-28T01:44:49.013Z,0.22
2022-09-28T01:47:22.345Z,0.40
2022-09-28T01:49:54.613Z,0.43
2022-09-28T01:52:27.812Z,0.30
2022-09-28T01:54:59.116Z,0.43
2022-09-28T01:57:34.413Z,0.50
2022-09-28T02:00:07.138Z,1.35
2022-09-28T02:02:40.789Z,0.60
2022-09-28T02:05:12.961Z,0.50
2022-09-28T02:07:45.168Z,0.70
2022-09-28T02:10:18.135Z,0.73
2022-09-28T02:12:49.779Z,0.50
2022-09-28T02:15:22.017Z,0.40
2022-09-28T02:17:50.273Z,0.30
2022-09-28T02:20:18.317Z,0.50
2022-09-28T02:22:50.597Z,0.40
2022-09-28T02:25:27.608Z,0.40
2022-09-28T02:28:00.324Z,0.38
2022-09-28T02:30:29.556Z,0.40
2022-09-28T02:33:00.633Z,0.47
2022-09-28T02:35:29.493Z,0.30
2022-09-28T02:37:57.487Z,0.30
2022-09-28T02:40:29.984Z,0.40
2022-09-28T02:43:04.986Z,0.88
2022-09-28T02:45:48.903Z,0.28
2022-09-28T02:48:43.002Z,0.28
2022-09-28T02:51:21.558Z,0.40
2022-09-28T02:54:08.036Z,0.50
2022-09-28T02:56:54.369Z,0.50
2022-09-28T02:59:37.185Z,0.32
2022-09-28T03:02:13.469Z,0.40
2022-09-28T03:04:49.489Z,0.40
2022-09-28T03:07:23.318Z,0.28
2022-09-28T03:09:58.653Z,0.82
2022-09-28T03:12:29.245Z,0.68
2022-09-28T03:15:14.340Z,0.30
2022-09-28T03:17:42.093Z,0.43
2022-09-28T03:20:11.740Z,0.50
2022-09-28T03:22:39.687Z,0.40
2022-09-28T03:25:08.847Z,0.40
2022-09-28T03:27:36.753Z,0.40
2022-09-28T03:30:05.345Z,0.30
2022-09-28T03:32:34.556Z,0.50
2022-09-28T03:35:02.390Z,0.35
2022-09-28T03:37:30.347Z,0.30
2022-09-28T03:39:58.161Z,0.30
2022-09-28T03:42:26.023Z,0.38
2022-09-28T03:44:53.840Z,0.22
2022-09-28T03:47:21.599Z,0.47
2022-09-28T03:49:50.889Z,0.35
2022-09-28T03:52:18.786Z,0.45
2022-09-28T03:54:49.257Z,0.40
2022-09-28T03:57:17.302Z,0.40
2022-09-28T03:59:45.131Z,0.55
2022-09-28T04:02:13.360Z,0.40
2022-09-28T04:04:41.929Z,0.50
2022-09-28T04:07:11.339Z,0.63
2022-09-28T04:09:39.137Z,0.55
2022-09-28T04:12:07.933Z,0.40
2022-09-28T04:14:35.740Z,0.40
2022-09-28T04:17:03.462Z,0.50
2022-09-28T04:19:31.335Z,0.43
2022-09-28T04:21:59.246Z,0.20
2022-09-28T04:24:28.383Z,0.32
2022-09-28T04:27:16.483Z,0.43
2022-09-28T04:29:43.920Z,0.30
2022-09-28T04:32:12.542Z,0.40
2022-09-28T04:34:43.875Z,0.20
2022-09-28T04:37:12.628Z,0.45
2022-09-28T04:39:46.189Z,0.22
2022-09-28T04:42:15.960Z,0.32
2022-09-28T04:44:43.919Z,0.45
2022-09-28T04:47:11.686Z,0.30
2022-09-28T04:49:39.423Z,0.20
2022-09-28T04:52:07.928Z,0.30
2022-09-28T04:54:36.013Z,0.20
2022-09-28T04:57:06.089Z,0.68
2022-09-28T04:59:34.259Z,0.28
2022-09-28T05:02:02.092Z,0.20
2022-09-28T05:04:30.448Z,0.40
2022-09-28T05:06:58.509Z,0.32
2022-09-28T05:09:26.243Z,0.52
2022-09-28T05:11:54.042Z,0.30
2022-09-28T05:14:24.691Z,0.22
2022-09-28T05:16:52.527Z,0.35
2022-09-28T05:19:20.356Z,0.95
2022-09-28T05:21:49.163Z,1.60
2022-09-28T05:24:16.913Z,1.70
2022-09-28T05:26:44.654Z,0.70
2022-09-28T05:29:12.944Z,0.50
2022-09-28T05:31:42.156Z,0.40
2022-09-28T05:34:09.974Z,0.43
2022-09-28T05:36:39.165Z,0.43
2022-09-28T05:39:07.183Z,0.40
2022-09-28T05:41:34.901Z,0.45
2022-09-28T05:44:03.020Z,0.60
2022-09-28T05:46:30.811Z,0.40
2022-09-28T05:49:00.625Z,0.38
2022-09-28T05:51:28.560Z,0.52
2022-09-28T05:53:56.558Z,0.75
2022-09-28T05:56:24.330Z,0.60
2022-09-28T05:58:52.253Z,1.40
2022-09-28T06:01:20.117Z,0.40
2022-09-28T06:03:47.875Z,0.65
2022-09-28T06:06:17.195Z,0.70
2022-09-28T06:08:46.282Z,0.50
2022-09-28T06:11:14.387Z,0.50
2022-09-28T06:13:42.705Z,0.63
2022-09-28T06:16:15.740Z,0.40
2022-09-28T06:18:43.807Z,0.50
2022-09-28T06:21:13.260Z,0.10
2022-09-28T06:23:48.204Z,0.30
2022-09-28T06:26:17.668Z,0.28
2022-09-28T06:28:45.549Z,0.32
2022-09-28T06:31:13.530Z,0.40
2022-09-28T06:33:41.991Z,0.22
2022-09-28T06:36:10.478Z,0.32
2022-09-28T06:38:38.377Z,0.40
2022-09-28T06:41:07.897Z,0.47
2022-09-28T06:43:39.473Z,0.30
2022-09-28T06:46:09.697Z,0.57
2022-09-28T06:48:38.042Z,0.50
2022-09-28T06:51:06.832Z,0.70
2022-09-28T06:53:35.773Z,0.60
2022-09-28T06:56:07.207Z,0.30
2022-09-28T06:58:36.847Z,0.60
2022-09-28T07:01:05.746Z,0.57
2022-09-28T07:03:33.708Z,0.40
2022-09-28T07:06:04.313Z,0.90
2022-09-28T07:08:32.074Z,0.70
2022-09-28T07:11:01.341Z,0.50
2022-09-28T07:13:48.600Z,0.85
2022-09-28T07:16:22.705Z,0.80
2022-09-28T07:18:53.842Z,0.60
2022-09-28T07:21:29.347Z,0.60
2022-09-28T07:23:58.344Z,0.65
2022-09-28T07:26:26.683Z,0.70
2022-09-28T07:28:55.758Z,0.70
2022-09-28T07:31:26.266Z,0.40
2022-09-28T07:33:54.143Z,0.38
2022-09-28T07:36:22.779Z,0.30
2022-09-28T07:38:52.720Z,0.30
2022-09-28T07:41:33.582Z,0.35
2022-09-28T07:44:06.300Z,0.30
2022-09-28T07:46:36.821Z,0.40
2022-09-28T07:49:08.379Z,0.45
2022-09-28T07:51:39.497Z,0.50
2022-09-28T07:54:07.468Z,0.60
2022-09-28T07:56:35.340Z,0.38
2022-09-28T07:59:03.230Z,0.70
2022-09-28T08:01:31.188Z,0.50
2022-09-28T08:04:00.495Z,0.80
2022-09-28T08:06:28.329Z,0.80
2022-09-28T08:08:56.909Z,0.88
2022-09-28T08:11:24.806Z,0.73
2022-09-28T08:13:55.360Z,0.70
2022-09-28T08:16:23.342Z,1.05
2022-09-28T08:18:51.457Z,0.73
2022-09-28T08:21:39.025Z,0.68
2022-09-28T08:24:07.171Z,0.63
2022-09-28T08:26:35.199Z,0.63
2022-09-28T08:29:03.152Z,0.75
2022-09-28T08:31:31.186Z,1.25
2022-09-28T08:33:59.219Z,0.50
2022-09-28T08:36:28.620Z,0.50
2022-09-28T08:38:56.793Z,0.82
2022-09-28T08:41:35.335Z,0.52
2022-09-28T08:44:23.623Z,0.40
2022-09-28T08:46:55.005Z,0.30
2022-09-28T08:49:27.859Z,0.50
2022-09-28T08:52:02.122Z,0.30
2022-09-28T08:54:39.013Z,0.43
2022-09-28T08:57:12.994Z,0.40
2022-09-28T08:59:50.391Z,0.28
2022-09-28T09:02:24.094Z,0.30
2022-09-28T09:04:53.075Z,0.40
2022-09-28T09:07:46.265Z,0.25
2022-09-28T09:10:28.850Z,0.30
2022-09-28T09:13:07.021Z,0.43
2022-09-28T09:15:47.719Z,0.52
2022-09-28T09:18:25.478Z,0.38
2022-09-28T09:20:56.790Z,0.60
2022-09-28T09:23:36.523Z,0.20
2022-09-28T09:26:16.478Z,0.30
2022-09-28T09:29:02.574Z,0.25
2022-09-28T09:31:43.071Z,0.10
2022-09-28T09:34:31.378Z,0.30
2022-09-28T09:37:25.284Z,0.10
2022-09-28T09:40:09.845Z,0.28
2022-09-28T09:42:49.141Z,0.25
2022-09-28T09:45:35.613Z,0.35
2022-09-28T09:48:07.349Z,0.10
2022-09-28T09:50:40.585Z,0.20
2022-09-28T09:53:18.769Z,0.30
2022-09-28T09:55:51.464Z,0.20
2022-09-28T09:58:25.318Z,0.10
2022-09-28T10:00:56.119Z,0.50
2022-09-28T10:03:30.779Z,0.20
2022-09-28T10:06:02.803Z,0.25
2022-09-28T10:08:34.904Z,0.10
2022-09-28T10:11:13.063Z,0.15
2022-09-28T10:13:41.237Z,0.22
2022-09-28T10:16:09.232Z,0.30
2022-09-28T10:18:38.680Z,0.20
2022-09-28T10:21:07.099Z,0.13
2022-09-28T10:23:38.840Z,0.30
2022-09-28T10:26:13.470Z,0.13
2022-09-28T10:28:48.524Z,0.20
2022-09-28T10:31:41.459Z,0.20
2022-09-28T10:34:14.153Z,0.10
2022-09-28T10:36:55.170Z,0.30
2022-09-28T10:39:29.027Z,0.10
2022-09-28T10:41:59.909Z,0.20
2022-09-28T10:44:28.432Z,0.10
2022-09-28T10:47:02.406Z,0.10
2022-09-28T10:49:46.560Z,0.13
2022-09-28T10:52:33.326Z,0.30
2022-09-28T10:55:01.783Z,0.30
2022-09-28T10:57:35.713Z,0.20
2022-09-28T11:00:06.965Z,0.13
2022-09-28T11:02:36.864Z,0.10
2022-09-28T11:05:06.885Z,0.28
2022-09-28T11:07:45.226Z,0.10
2022-09-28T11:10:21.450Z,0.10
2022-09-28T11:12:51.570Z,0.10
2022-09-28T11:15:22.190Z,0.17
2022-09-28T11:17:50.169Z,0.10
2022-09-28T11:20:34.627Z,0.22
2022-09-28T11:23:21.320Z,0.20
2022-09-28T11:26:00.808Z,0.15
2022-09-28T11:28:33.552Z,0.20
2022-09-28T11:31:03.173Z,0.15
2022-09-28T11:33:34.092Z,0.10
2022-09-28T11:36:17.247Z,0.25
2022-09-28T11:38:53.795Z,0.30
2022-09-28T11:41:54.422Z,0.20
2022-09-28T11:44:38.095Z,0.13
2022-09-28T11:47:36.495Z,0.30
2022-09-28T11:50:17.054Z,0.10
2022-09-28T11:52:55.578Z,0.20
2022-09-28T11:55:28.785Z,0.10
2022-09-28T11:58:04.721Z,0.20
2022-09-28T12:00:39.211Z,0.20
2022-09-28T12:03:12.550Z,0.10
2022-09-28T12:05:44.960Z,0.30
2022-09-28T12:08:19.629Z,0.45
2022-09-28T12:10:53.896Z,0.35
2022-09-28T12:13:27.488Z,0.65
2022-09-28T12:16:32.281Z,0.70
2022-09-28T12:18:54.082Z,0.57
2022-09-28T12:21:41.916Z,0.30
2022-09-28T12:24:16.662Z,0.73
2022-09-28T12:26:49.556Z,0.50
2022-09-28T12:29:21.929Z,0.75
2022-09-28T12:32:05.589Z,0.50
2022-09-28T12:34:33.597Z,0.60
2022-09-28T12:37:14.142Z,0.50
2022-09-28T12:40:04.572Z,0.45
2022-09-28T12:42:52.883Z,0.40
2022-09-28T12:45:53.398Z,0.77
2022-09-28T12:49:33.220Z,0.50
2022-09-28T12:51:50.392Z,0.10
2022-09-28T12:54:34.341Z,0.20
2022-09-28T12:57:16.808Z,0.30
2022-09-28T12:59:57.948Z,0.43
2022-09-28T13:02:59.449Z,0.30
2022-09-28T13:05:55.725Z,0.17
2022-09-28T13:08:32.453Z,0.30
2022-09-28T13:11:11.025Z,0.22
2022-09-28T13:13:49.196Z,0.45
2022-09-28T13:16:34.059Z,0.30
2022-09-28T13:19:07.925Z,0.10
2022-09-28T13:21:42.853Z,0.35
2022-09-28T13:24:32.263Z,0.47
2022-09-28T13:27:07.779Z,0.30
2022-09-28T13:32:12.598Z,0.28
2022-09-28T13:34:46.982Z,0.22
2022-09-28T13:37:25.430Z,0.20
2022-09-28T13:39:56.395Z,0.20
2022-09-28T13:43:01.216Z,0.20
2022-09-28T13:45:40.270Z,0.35
2022-09-28T13:48:20.540Z,0.30
2022-09-28T13:51:10.690Z,0.30
2022-09-28T13:54:02.381Z,0.30
2022-09-28T13:56:38.728Z,0.20
2022-09-28T13:59:16.390Z,0.57
2022-09-28T14:01:51.635Z,0.30
2022-09-28T14:04:23.339Z,0.22
2022-09-28T14:06:55.616Z,0.30
2022-09-28T14:09:41.999Z,0.40
2022-09-28T14:12:31.723Z,0.60
2022-09-28T14:15:01.494Z,0.50
2022-09-28T14:18:01.910Z,0.65
2022-09-28T14:20:32.399Z,0.30
2022-09-28T14:23:29.703Z,0.40
2022-09-28T14:26:26.908Z,0.30
2022-09-28T14:29:10.179Z,0.38
2022-09-28T14:31:43.649Z,0.20
2022-09-28T14:34:27.015Z,0.45
2022-09-28T14:37:12.337Z,0.30
2022-09-28T14:40:03.300Z,0.22
2022-09-28T14:42:32.685Z,0.35
2022-09-28T14:45:35.794Z,0.57
2022-09-28T14:48:16.649Z,0.65
2022-09-28T14:50:47.254Z,0.63
2022-09-28T14:53:20.882Z,0.70
2022-09-28T14:55:52.324Z,0.60
2022-09-28T14:58:25.210Z,0.60
2022-09-28T15:01:01.196Z,0.50
2022-09-28T15:03:32.694Z,0.50
2022-09-28T15:06:01.432Z,0.63
2022-09-28T15:08:40.206Z,0.50
2022-09-28T15:11:15.180Z,0.63
2022-09-28T15:13:45.013Z,0.40
2022-09-28T15:16:16.493Z,0.70
2022-09-28T15:19:09.371Z,0.40
2022-09-28T15:21:39.725Z,0.63
2022-09-28T15:24:28.638Z,0.50
2022-09-28T15:26:57.127Z,0.68
2022-09-28T15:29:28.099Z,0.93
2022-09-28T15:31:55.939Z,0.50
2022-09-28T15:34:49.795Z,0.50
2022-09-28T15:37:21.974Z,0.20
2022-09-28T15:39:51.362Z,0.63
2022-09-28T15:42:19.761Z,0.75
2022-09-28T15:45:06.104Z,0.60
2022-09-28T15:47:34.019Z,0.50
2022-09-28T15:50:04.994Z,0.70
2022-09-28T15:52:40.642Z,0.70
2022-09-28T15:55:21.649Z,0.50
2022-09-28T15:57:50.199Z,0.60
2022-09-28T16:00:28.161Z,0.57
2022-09-28T16:03:06.378Z,0.50
2022-09-28T16:05:41.642Z,0.40
2022-09-28T16:08:21.337Z,1.08
2022-09-28T16:10:56.479Z,0.98
2022-09-28T16:13:25.125Z,0.52
2022-09-28T16:15:59.855Z,0.63
2022-09-28T16:18:29.885Z,0.63
2022-09-28T16:21:21.311Z,0.60
2022-09-28T16:23:53.285Z,0.85
2022-09-28T16:26:32.079Z,1.33
2022-09-28T16:29:00.486Z,0.98
2022-09-28T16:31:37.212Z,1.52
2022-09-28T16:34:19.951Z,0.75
2022-09-28T16:36:50.103Z,0.50
2022-09-28T16:39:19.149Z,0.47
2022-09-28T16:41:49.822Z,0.43
2022-09-28T16:44:24.360Z,0.50
2022-09-28T16:46:57.081Z,0.50
2022-09-28T16:49:26.810Z,0.75
2022-09-28T16:51:54.887Z,0.40
2022-09-28T16:54:40.901Z,0.52
2022-09-28T16:57:11.970Z,0.50
2022-09-28T16:59:39.950Z,0.70
2022-09-28T17:02:42.350Z,0.60
2022-09-28T17:05:12.815Z,0.80
2022-09-28T17:07:41.823Z,0.75
2022-09-28T17:10:17.429Z,0.85
2022-09-28T17:12:45.673Z,0.35
2022-09-28T17:15:18.588Z,0.85
2022-09-28T17:17:49.366Z,0.90
2022-09-28T17:20:23.062Z,1.00
2022-09-28T17:22:51.143Z,0.90
2022-09-28T17:25:19.130Z,1.20
2022-09-28T17:27:48.712Z,1.80
2022-09-28T17:30:17.414Z,2.90
2022-09-28T17:32:47.098Z,2.17
2022-09-28T17:35:25.401Z,1.60
2022-09-28T17:37:54.196Z,1.52
2022-09-28T17:40:23.725Z,1.48
2022-09-28T17:42:55.058Z,1.15
2022-09-28T17:45:23.723Z,1.02
2022-09-28T17:47:52.881Z,0.95
2022-09-28T17:50:23.956Z,0.90
2022-09-28T17:52:53.164Z,1.00
2022-09-28T17:55:22.507Z,1.10
2022-09-28T17:57:50.748Z,0.90
2022-09-28T18:00:19.534Z,1.25
2022-09-28T18:02:48.183Z,1.17
2022-09-28T18:05:19.499Z,1.60
2022-09-28T18:07:48.029Z,1.77
2022-09-28T18:10:18.148Z,2.22
2022-09-28T18:12:45.974Z,1.92
2022-09-28T18:15:14.449Z,2.30
2022-09-28T18:17:43.034Z,2.97
2022-09-28T18:20:13.126Z,2.33
2022-09-28T18:22:42.870Z,3.10
2022-09-28T18:25:11.158Z,2.30
2022-09-28T18:27:39.015Z,2.45
2022-09-28T18:30:08.267Z,2.40
2022-09-28T18:32:37.297Z,2.45
2022-09-28T18:35:05.725Z,2.72
2022-09-28T18:37:37.448Z,2.63
2022-09-28T18:40:08.838Z,3.20
2022-09-28T18:42:37.158Z,3.00
2022-09-28T18:45:07.110Z,3.60
2022-09-28T18:47:35.097Z,3.17
2022-09-28T18:50:03.046Z,2.90
2022-09-28T18:52:30.921Z,4.10
2022-09-28T18:54:58.722Z,3.20
2022-09-28T18:57:27.998Z,3.25
2022-09-28T18:59:55.777Z,3.58
2022-09-28T19:02:23.708Z,3.70
2022-09-28T19:04:51.632Z,3.88
2022-09-28T19:07:19.499Z,3.58
2022-09-28T19:09:47.265Z,3.40
2022-09-28T19:12:15.943Z,3.38
2022-09-28T19:14:45.138Z,3.50
2022-09-28T19:17:13.173Z,3.15
2022-09-28T19:19:42.612Z,2.95
2022-09-28T19:22:10.593Z,2.70
2022-09-28T19:24:38.402Z,2.50
2022-09-28T19:27:06.440Z,2.92
2022-09-28T19:29:34.471Z,2.83
2022-09-28T19:32:04.006Z,2.72
2022-09-28T19:34:32.048Z,2.67
2022-09-28T19:37:03.708Z,2.55
2022-09-28T19:39:31.744Z,2.50
2022-09-28T19:42:01.158Z,2.58
2022-09-28T19:44:31.165Z,2.17
2022-09-28T19:47:06.948Z,2.00
2022-09-28T19:49:37.794Z,2.00
2022-09-28T19:52:13.410Z,2.05
2022-09-28T19:54:43.784Z,2.20
2022-09-28T19:57:12.058Z,1.90
2022-09-28T19:59:40.589Z,2.30
2022-09-28T20:02:11.725Z,2.22
2022-09-28T20:04:41.576Z,1.77
2022-09-28T20:07:09.361Z,2.28
2022-09-28T20:09:37.398Z,2.10
2022-09-28T20:12:05.552Z,2.17
2022-09-28T20:14:37.980Z,2.25
2022-09-28T20:17:08.236Z,2.10
2022-09-28T20:19:36.015Z,2.33
2022-09-28T20:22:05.335Z,2.88
2022-09-28T20:24:33.231Z,2.63
2022-09-28T20:27:01.829Z,2.55
2022-09-28T20:29:31.463Z,2.30
2022-09-28T20:31:59.732Z,2.00
2022-09-28T20:34:27.578Z,2.63
2022-09-28T20:36:55.303Z,2.20
2022-09-28T20:39:24.573Z,2.20
2022-09-28T20:41:52.337Z,2.38
2022-09-28T20:44:20.307Z,1.90
2022-09-28T20:46:51.123Z,2.50
2022-09-28T20:49:18.910Z,2.33
2022-09-28T20:51:46.695Z,2.35
2022-09-28T20:54:14.544Z,2.45
2022-09-28T20:56:43.653Z,1.85
2022-09-28T20:59:13.009Z,1.52
2022-09-28T21:01:41.915Z,1.83
2022-09-28T21:04:11.705Z,2.10
2022-09-28T21:06:41.650Z,1.77
2022-09-28T21:09:11.621Z,1.90
2022-09-28T21:11:40.270Z,2.00
2022-09-28T21:14:11.782Z,2.00
2022-09-28T21:16:39.730Z,2.30
2022-09-28T21:19:07.804Z,2.10
2022-09-28T21:21:35.715Z,2.75
2022-09-28T21:24:03.457Z,2.08
2022-09-28T21:26:32.742Z,2.47
2022-09-28T21:29:02.754Z,2.17
2022-09-28T21:31:33.724Z,2.58
2022-09-28T21:34:01.726Z,2.60
2022-09-28T21:36:29.516Z,2.15
2022-09-28T21:38:57.565Z,2.25
2022-09-28T21:41:26.149Z,2.65
2022-09-28T21:43:54.118Z,2.22
2022-09-28T21:46:22.354Z,2.88
2022-09-28T21:48:54.304Z,2.70
2022-09-28T21:51:22.598Z,2.13
2022-09-28T21:53:50.532Z,1.77
2022-09-28T21:56:18.618Z,2.78
2022-09-28T21:58:46.764Z,2.50
2022-09-28T22:01:18.089Z,2.47
2022-09-28T22:03:47.825Z,2.10
2022-09-28T22:06:18.865Z,2.50
2022-09-28T22:08:47.124Z,2.80
2022-09-28T22:11:17.057Z,2.17
2022-09-28T22:13:46.344Z,2.47
2022-09-28T22:16:16.529Z,2.10
2022-09-28T22:18:45.442Z,2.30
2022-09-28T22:21:17.268Z,2.13
2022-09-28T22:23:45.436Z,2.53
2022-09-28T22:26:17.781Z,2.20
2022-09-28T22:28:47.718Z,2.33
2022-09-28T22:31:16.499Z,1.80
2022-09-28T22:33:44.543Z,1.75
2022-09-28T22:36:16.577Z,1.90
2022-09-28T22:38:45.993Z,1.95
2022-09-28T22:41:15.790Z,1.95
2022-09-28T22:43:43.987Z,2.00
2022-09-28T22:46:13.888Z,2.08
2022-09-28T22:48:42.693Z,1.80
2022-09-28T22:51:10.721Z,2.03
2022-09-28T22:53:38.531Z,2.28
2022-09-28T22:56:08.799Z,2.05
2022-09-28T22:58:37.795Z,2.20
2022-09-28T23:01:10.058Z,2.42
2022-09-28T23:03:40.126Z,2.20
2022-09-28T23:06:08.818Z,2.05
2022-09-28T23:08:37.051Z,2.33
2022-09-28T23:11:05.645Z,2.97
2022-09-28T23:13:35.098Z,3.22
2022-09-28T23:16:05.577Z,2.50
2022-09-28T23:18:38.019Z,2.47
2022-09-28T23:21:08.177Z,2.25
2022-09-28T23:23:35.891Z,3.17
2022-09-28T23:26:12.251Z,3.53
2022-09-28T23:28:41.833Z,2.33
2022-09-28T23:31:11.805Z,2.80
2022-09-28T23:33:39.828Z,2.53
2022-09-28T23:36:08.734Z,2.15
2022-09-28T23:38:37.287Z,2.38
2022-09-28T23:41:05.466Z,2.15
2022-09-28T23:43:33.441Z,2.47
2022-09-28T23:46:02.778Z,2.88
2022-09-28T23:48:31.037Z,2.28
2022-09-28T23:50:58.824Z,2.25
2022-09-28T23:53:26.766Z,2.63
2022-09-28T23:55:56.069Z,2.03
2022-09-28T23:58:24.005Z,2.60
